createdAt,value
2018-03-21T00:00:07.273Z,125.80
2018-03-21T00:02:36.389Z,126.07
2018-03-21T00:05:05.509Z,125.95
2018-03-21T00:07:34.637Z,123.32
2018-03-21T00:10:03.827Z,124.87
2018-03-21T00:12:32.930Z,124.87
2018-03-21T00:15:02.078Z,125.28
2018-03-21T00:17:31.190Z,125.43
2018-03-21T00:20:00.313Z,127.35
2018-03-21T00:22:29.408Z,123.87
2018-03-21T00:24:58.528Z,125.55
2018-03-21T00:27:27.670Z,124.78
2018-03-21T00:29:56.770Z,125.93
2018-03-21T00:32:25.890Z,123.70
2018-03-21T00:34:55.007Z,125.25
2018-03-21T00:37:24.172Z,124.85
2018-03-21T00:39:53.285Z,125.22
2018-03-21T00:42:22.423Z,123.50
2018-03-21T00:44:51.574Z,123.07
2018-03-21T00:47:20.706Z,123.55
2018-03-21T00:49:49.821Z,123.38
2018-03-21T00:52:18.990Z,124.85
2018-03-21T00:54:48.089Z,125.05
2018-03-21T00:57:17.214Z,124.25
2018-03-21T00:59:46.358Z,124.10
2018-03-21T01:02:15.506Z,124.93
2018-03-21T01:04:44.629Z,125.57
2018-03-21T01:07:13.775Z,125.05
2018-03-21T01:09:42.913Z,124.95
2018-03-21T01:12:12.082Z,125.30
2018-03-21T01:14:41.175Z,124.05
2018-03-21T01:17:10.295Z,126.68
2018-03-21T01:19:39.412Z,124.93
2018-03-21T01:22:08.503Z,126.78
2018-03-21T01:24:37.621Z,124.38
2018-03-21T01:27:06.736Z,125.45
2018-03-21T01:29:35.854Z,124.55
2018-03-21T01:32:05.003Z,125.28
2018-03-21T01:34:34.150Z,125.55
2018-03-21T01:37:03.333Z,124.55
2018-03-21T01:39:32.431Z,124.50
2018-03-21T01:42:01.694Z,123.53
2018-03-21T01:44:30.838Z,125.18
2018-03-21T01:46:59.976Z,125.85
2018-03-21T01:49:29.117Z,124.93
2018-03-21T01:51:58.209Z,124.28
2018-03-21T01:54:27.299Z,123.53
2018-03-21T01:56:56.418Z,123.57
2018-03-21T01:59:25.551Z,124.05
2018-03-21T02:01:54.742Z,121.22
2018-03-21T02:04:23.907Z,122.13
2018-03-21T02:06:53.039Z,123.53
2018-03-21T02:09:22.130Z,124.78
2018-03-21T02:11:51.282Z,123.57
2018-03-21T02:14:20.394Z,126.15
2018-03-21T02:16:49.562Z,124.60
2018-03-21T02:19:18.676Z,124.22
2018-03-21T02:21:47.810Z,123.95
2018-03-21T02:24:16.965Z,123.93
2018-03-21T02:26:46.094Z,123.32
2018-03-21T02:29:15.299Z,124.85
2018-03-21T02:31:44.395Z,121.97
2018-03-21T02:34:13.491Z,124.03
2018-03-21T02:36:42.626Z,123.10
2018-03-21T02:39:11.760Z,123.87
2018-03-21T02:41:40.885Z,123.65
2018-03-21T02:44:09.997Z,123.35
2018-03-21T02:46:39.131Z,123.90
2018-03-21T02:51:43.552Z,122.60
2018-03-21T02:54:12.653Z,123.10
2018-03-21T02:56:41.814Z,123.32
2018-03-21T02:59:10.968Z,124.28
2018-03-21T03:01:40.091Z,123.30
2018-03-21T03:04:09.194Z,125.22
2018-03-21T03:06:38.340Z,125.93
2018-03-21T03:09:07.462Z,125.50
2018-03-21T03:11:36.586Z,126.47
2018-03-21T03:14:05.719Z,125.72
2018-03-21T03:16:34.833Z,125.62
2018-03-21T03:19:03.969Z,122.22
2018-03-21T03:21:33.064Z,122.03
2018-03-21T03:24:02.186Z,123.53
2018-03-21T03:26:31.305Z,125.47
2018-03-21T03:29:00.425Z,123.20
2018-03-21T03:31:29.538Z,125.12
2018-03-21T03:33:58.661Z,125.78
2018-03-21T03:36:27.797Z,125.68
2018-03-21T03:38:56.966Z,125.97
2018-03-21T03:41:26.066Z,125.62
2018-03-21T03:43:55.210Z,124.65
2018-03-21T03:46:24.361Z,123.97
2018-03-21T03:48:53.469Z,125.55
2018-03-21T03:51:22.578Z,127.07
2018-03-21T03:53:57.629Z,125.00
2018-03-21T03:56:26.755Z,124.12
2018-03-21T03:58:55.861Z,125.43
2018-03-21T04:01:24.991Z,125.62
2018-03-21T04:03:54.115Z,126.82
2018-03-21T04:06:23.246Z,126.87
2018-03-21T04:08:52.454Z,123.78
2018-03-21T04:11:21.546Z,128.50
2018-03-21T04:13:50.646Z,126.35
2018-03-21T04:16:19.778Z,124.47
2018-03-21T04:18:48.898Z,126.18
2018-03-21T04:21:18.038Z,126.60
2018-03-21T04:23:47.158Z,124.40
2018-03-21T04:26:16.274Z,126.18
2018-03-21T04:28:45.448Z,126.10
2018-03-21T04:31:14.561Z,127.68
2018-03-21T04:33:43.666Z,125.25
2018-03-21T04:36:12.802Z,126.95
2018-03-21T04:38:41.946Z,127.20
2018-03-21T04:41:11.130Z,127.25
2018-03-21T04:43:40.225Z,125.55
2018-03-21T04:46:09.413Z,126.72
2018-03-21T04:48:38.629Z,127.47
2018-03-21T04:51:07.779Z,126.05
2018-03-21T04:53:37.006Z,126.38
2018-03-21T04:56:06.125Z,125.72
2018-03-21T04:58:35.315Z,124.95
2018-03-21T05:01:04.450Z,126.70
2018-03-21T05:03:33.557Z,125.75
2018-03-21T05:06:02.766Z,128.85
2018-03-21T05:08:31.966Z,128.95
2018-03-21T05:11:01.228Z,129.48
2018-03-21T05:13:30.327Z,129.40
2018-03-21T05:15:59.445Z,127.53
2018-03-21T05:18:28.549Z,126.82
2018-03-21T05:20:57.681Z,127.53
2018-03-21T05:23:26.809Z,125.28
2018-03-21T05:25:55.934Z,127.25
2018-03-21T05:28:25.026Z,129.85
2018-03-21T05:30:54.141Z,128.12
2018-03-21T05:33:23.274Z,129.35
2018-03-21T05:35:52.401Z,134.48
2018-03-21T05:38:21.528Z,132.18
2018-03-21T05:40:50.672Z,129.93
2018-03-21T05:43:19.799Z,129.30
2018-03-21T05:45:48.928Z,131.35
2018-03-21T05:48:24.619Z,134.27
2018-03-21T05:50:53.780Z,131.12
2018-03-21T05:53:22.889Z,128.32
2018-03-21T05:55:52.005Z,130.35
2018-03-21T05:58:21.122Z,131.48
2018-03-21T06:00:50.257Z,129.85
2018-03-21T06:03:19.350Z,129.50
2018-03-21T06:05:48.462Z,129.65
2018-03-21T06:08:17.645Z,131.05
2018-03-21T06:10:46.933Z,131.23
2018-03-21T06:13:36.795Z,131.50
2018-03-21T06:16:08.120Z,129.70
2018-03-21T06:18:37.246Z,129.32
2018-03-21T06:21:06.373Z,130.85
2018-03-21T06:23:35.474Z,128.87
2018-03-21T06:26:04.598Z,129.87
2018-03-21T06:28:33.695Z,129.82
2018-03-21T06:31:02.836Z,130.98
2018-03-21T06:33:32.188Z,131.85
2018-03-21T06:36:01.354Z,129.87
2018-03-21T06:38:30.458Z,132.18
2018-03-21T06:40:59.571Z,129.40
2018-03-21T06:43:28.721Z,131.35
2018-03-21T06:45:57.928Z,132.15
2018-03-21T06:48:27.135Z,132.10
2018-03-21T06:50:56.221Z,133.98
2018-03-21T06:53:25.387Z,138.00
2018-03-21T06:55:54.552Z,140.77
2018-03-21T06:58:23.713Z,139.13
2018-03-21T07:00:52.823Z,138.83
2018-03-21T07:03:21.921Z,140.80
2018-03-21T07:05:51.046Z,139.00
2018-03-21T07:08:20.194Z,140.63
2018-03-21T07:10:49.294Z,145.87
2018-03-21T07:13:18.419Z,145.30
2018-03-21T07:15:53.353Z,142.30
2018-03-21T07:18:22.459Z,147.93
2018-03-21T07:20:51.588Z,146.10
2018-03-21T07:23:20.709Z,144.83
2018-03-21T07:25:49.838Z,139.13
2018-03-21T07:28:18.982Z,140.10
2018-03-21T07:30:48.197Z,139.50
2018-03-21T07:33:17.338Z,140.03
2018-03-21T07:35:46.439Z,143.77
2018-03-21T07:38:15.556Z,142.00
2018-03-21T07:40:44.674Z,142.40
2018-03-21T07:43:13.801Z,140.20
2018-03-21T07:45:42.921Z,143.23
2018-03-21T07:48:12.037Z,145.27
2018-03-21T07:50:41.190Z,143.57
2018-03-21T07:53:10.386Z,143.00
2018-03-21T07:55:39.594Z,147.47
2018-03-21T07:58:08.735Z,144.07
2018-03-21T08:00:37.836Z,146.23
2018-03-21T08:03:06.970Z,145.27
2018-03-21T08:05:36.116Z,145.50
2018-03-21T08:08:05.263Z,148.17
2018-03-21T08:10:34.402Z,146.53
2018-03-21T08:13:03.535Z,146.23
2018-03-21T08:15:33.592Z,146.87
2018-03-21T08:18:02.709Z,159.93
2018-03-21T08:20:31.823Z,150.87
2018-03-21T08:23:00.935Z,160.37
2018-03-21T08:25:30.027Z,167.20
2018-03-21T08:27:59.164Z,154.57
2018-03-21T08:30:28.317Z,155.87
2018-03-21T08:32:57.434Z,154.93
2018-03-21T08:35:26.582Z,159.50
2018-03-21T08:37:55.681Z,159.37
2018-03-21T08:40:24.789Z,162.27
2018-03-21T08:42:53.902Z,157.97
2018-03-21T08:45:23.015Z,156.97
2018-03-21T08:47:52.211Z,153.23
2018-03-21T08:50:21.337Z,155.00
2018-03-21T08:52:50.459Z,152.70
2018-03-21T08:55:19.567Z,159.57
2018-03-21T08:57:48.734Z,157.27
2018-03-21T09:00:17.817Z,158.23
2018-03-21T09:02:46.918Z,152.47
2018-03-21T09:05:16.047Z,144.57
2018-03-21T09:07:45.253Z,141.37
2018-03-21T09:10:14.342Z,149.87
2018-03-21T09:12:43.515Z,151.50
2018-03-21T09:15:12.630Z,153.87
2018-03-21T09:17:41.734Z,153.37
2018-03-21T09:20:10.835Z,152.97
2018-03-21T09:22:39.947Z,150.53
2018-03-21T09:25:09.053Z,144.70
2018-03-21T09:27:38.204Z,129.00
2018-03-21T09:30:07.346Z,125.07
2018-03-21T09:32:36.466Z,126.17
2018-03-21T09:35:05.570Z,120.17
2018-03-21T09:37:34.721Z,126.93
2018-03-21T09:40:03.849Z,137.40
2018-03-21T09:42:32.960Z,148.73
2018-03-21T09:45:02.194Z,147.93
2018-03-21T09:47:31.398Z,155.33
2018-03-21T09:50:00.552Z,152.03
2018-03-21T09:52:29.638Z,153.00
2018-03-21T09:54:58.718Z,163.47
2018-03-21T09:57:27.894Z,176.70
2018-03-21T09:59:57.020Z,174.80
2018-03-21T10:02:26.164Z,165.47
2018-03-21T10:04:55.301Z,171.63
2018-03-21T10:07:24.449Z,176.57
2018-03-21T10:09:53.537Z,172.57
2018-03-21T10:12:22.678Z,158.03
2018-03-21T10:14:51.793Z,148.17
2018-03-21T10:17:20.913Z,147.37
2018-03-21T10:19:50.110Z,148.90
2018-03-21T10:22:19.225Z,151.00
2018-03-21T10:24:48.345Z,145.13
2018-03-21T10:27:17.465Z,145.87
2018-03-21T10:29:46.558Z,142.37
2018-03-21T10:32:15.657Z,145.43
2018-03-21T10:34:44.775Z,142.10
2018-03-21T10:37:13.871Z,143.00
2018-03-21T10:39:42.990Z,142.33
2018-03-21T10:42:12.190Z,146.23
2018-03-21T10:44:41.329Z,146.13
2018-03-21T10:47:10.510Z,149.20
2018-03-21T10:49:39.633Z,143.37
2018-03-21T10:52:08.777Z,146.20
2018-03-21T10:54:37.920Z,148.67
2018-03-21T10:57:07.050Z,147.23
2018-03-21T10:59:36.224Z,150.33
2018-03-21T11:02:11.151Z,150.73
2018-03-21T11:04:40.238Z,146.53
2018-03-21T11:07:09.354Z,149.37
2018-03-21T11:09:38.467Z,148.30
2018-03-21T11:12:07.581Z,149.17
2018-03-21T11:14:36.736Z,147.13
2018-03-21T11:17:05.850Z,148.07
2018-03-21T11:19:34.964Z,164.30
2018-03-21T11:22:04.178Z,166.63
2018-03-21T11:24:33.283Z,158.03
2018-03-21T11:27:03.388Z,156.87
2018-03-21T11:29:32.609Z,162.60
2018-03-21T11:32:01.791Z,170.60
2018-03-21T11:34:30.885Z,164.20
2018-03-21T11:37:00.014Z,159.97
2018-03-21T11:39:29.105Z,163.17
2018-03-21T11:41:58.197Z,171.17
2018-03-21T11:44:27.364Z,165.87
2018-03-21T11:46:56.484Z,148.33
2018-03-21T11:49:25.630Z,148.30
2018-03-21T11:51:54.742Z,148.40
2018-03-21T11:54:23.866Z,146.47
2018-03-21T11:56:52.989Z,140.57
2018-03-21T11:59:22.102Z,143.90
2018-03-21T12:01:51.233Z,139.57
2018-03-21T12:04:20.349Z,141.53
2018-03-21T12:06:49.623Z,140.30
2018-03-21T12:09:18.738Z,142.13
2018-03-21T12:11:47.880Z,140.67
2018-03-21T12:14:17.003Z,142.30
2018-03-21T12:16:46.134Z,142.43
2018-03-21T12:19:15.342Z,144.40
2018-03-21T12:21:44.461Z,143.60
2018-03-21T12:24:13.573Z,142.43
2018-03-21T12:26:42.790Z,143.43
2018-03-21T12:29:11.986Z,143.23
2018-03-21T12:31:41.106Z,140.95
2018-03-21T12:34:10.247Z,139.18
2018-03-21T12:36:39.372Z,135.40
2018-03-21T12:39:08.569Z,132.03
2018-03-21T12:41:37.723Z,134.37
2018-03-21T12:44:06.898Z,131.87
2018-03-21T12:46:36.091Z,133.52
2018-03-21T12:49:05.235Z,133.95
2018-03-21T12:51:34.356Z,131.48
2018-03-21T12:54:03.491Z,132.15
2018-03-21T12:56:32.598Z,131.68
2018-03-21T12:59:01.815Z,132.50
2018-03-21T13:01:30.972Z,132.45
2018-03-21T13:04:00.091Z,131.02
2018-03-21T13:06:29.190Z,131.07
2018-03-21T13:08:58.393Z,128.23
2018-03-21T13:11:27.523Z,128.32
2018-03-21T13:13:56.621Z,128.52
2018-03-21T13:16:25.716Z,131.43
2018-03-21T13:18:54.826Z,132.35
2018-03-21T13:21:24.038Z,130.87
2018-03-21T13:23:53.155Z,129.02
2018-03-21T13:26:22.273Z,130.05
2018-03-21T13:28:51.431Z,127.18
2018-03-21T13:31:20.567Z,129.57
2018-03-21T13:33:49.653Z,125.87
2018-03-21T13:36:18.772Z,129.38
2018-03-21T13:38:47.933Z,129.70
2018-03-21T13:41:17.033Z,133.12
2018-03-21T13:43:46.156Z,129.68
2018-03-21T13:46:15.379Z,129.02
2018-03-21T13:48:44.504Z,129.52
2018-03-21T13:51:13.675Z,130.63
2018-03-21T13:53:42.886Z,130.18
2018-03-21T13:56:12.011Z,130.02
2018-03-21T13:58:41.107Z,130.07
2018-03-21T14:01:10.250Z,129.15
2018-03-21T14:03:39.383Z,129.82
2018-03-21T14:06:08.498Z,130.20
2018-03-21T14:08:37.626Z,129.02
2018-03-21T14:11:06.742Z,130.27
2018-03-21T14:13:35.845Z,130.68
2018-03-21T14:16:04.980Z,129.10
2018-03-21T14:18:34.096Z,131.68
2018-03-21T14:21:03.195Z,127.78
2018-03-21T14:23:32.325Z,127.15
2018-03-21T14:26:01.466Z,128.87
2018-03-21T14:28:30.634Z,128.82
2018-03-21T14:30:59.751Z,128.45
2018-03-21T14:33:28.881Z,129.12
2018-03-21T14:35:58.029Z,127.65
2018-03-21T14:38:27.135Z,129.00
2018-03-21T14:40:56.295Z,128.38
2018-03-21T14:43:25.578Z,129.18
2018-03-21T14:45:54.696Z,128.77
2018-03-21T14:48:23.960Z,131.87
2018-03-21T14:50:53.157Z,130.50
2018-03-21T14:53:22.306Z,129.75
2018-03-21T14:55:51.477Z,130.00
2018-03-21T14:58:20.646Z,130.48
2018-03-21T15:00:49.741Z,128.18
2018-03-21T15:03:18.846Z,131.77
2018-03-21T15:05:47.978Z,128.98
2018-03-21T15:08:17.130Z,129.87
2018-03-21T15:10:46.222Z,129.55
2018-03-21T15:13:15.338Z,130.57
2018-03-21T15:15:44.466Z,127.57
2018-03-21T15:18:13.604Z,130.73
2018-03-21T15:20:42.708Z,128.30
2018-03-21T15:23:11.829Z,130.12
2018-03-21T15:25:40.961Z,127.32
2018-03-21T15:28:10.054Z,127.62
2018-03-21T15:30:39.202Z,126.43
2018-03-21T15:33:08.332Z,126.87
2018-03-21T15:35:37.478Z,127.62
2018-03-21T15:38:06.604Z,127.30
2018-03-21T15:40:35.747Z,126.95
2018-03-21T15:43:04.933Z,127.72
2018-03-21T15:45:34.058Z,128.48
2018-03-21T15:48:03.188Z,124.30
2018-03-21T15:50:32.450Z,128.43
2018-03-21T15:53:01.550Z,127.28
2018-03-21T15:55:30.698Z,127.80
2018-03-21T15:57:59.897Z,128.95
2018-03-21T16:00:29.022Z,129.65
2018-03-21T16:02:58.172Z,128.30
2018-03-21T16:05:27.295Z,129.02
2018-03-21T16:07:56.393Z,129.05
2018-03-21T16:10:25.518Z,129.02
2018-03-21T16:12:54.633Z,127.35
2018-03-21T16:15:23.777Z,128.62
2018-03-21T16:17:52.911Z,131.85
2018-03-21T16:20:22.012Z,130.40
2018-03-21T16:22:51.134Z,128.93
2018-03-21T16:25:20.246Z,129.32
2018-03-21T16:27:50.407Z,128.48
2018-03-21T16:30:19.525Z,129.12
2018-03-21T16:32:48.702Z,130.80
2018-03-21T16:35:17.817Z,130.75
2018-03-21T16:37:46.918Z,130.40
2018-03-21T16:40:16.064Z,130.30
2018-03-21T16:42:45.183Z,128.25
2018-03-21T16:45:14.289Z,128.98
2018-03-21T16:47:43.485Z,126.70
2018-03-21T16:50:12.610Z,131.57
2018-03-21T16:52:41.745Z,129.60
2018-03-21T16:55:10.859Z,129.60
2018-03-21T16:57:39.962Z,128.50
2018-03-21T17:00:09.118Z,131.25
2018-03-21T17:02:38.240Z,129.98
2018-03-21T17:05:07.393Z,128.75
2018-03-21T17:07:36.491Z,127.43
2018-03-21T17:10:05.594Z,128.50
2018-03-21T17:12:34.746Z,128.93
2018-03-21T17:15:03.916Z,128.00
2018-03-21T17:17:33.400Z,128.98
2018-03-21T17:20:02.500Z,129.05
2018-03-21T17:22:31.616Z,128.93
2018-03-21T17:25:00.765Z,131.80
2018-03-21T17:27:29.863Z,130.37
2018-03-21T17:29:58.981Z,130.15
2018-03-21T17:32:28.107Z,130.25
2018-03-21T17:34:57.203Z,129.93
2018-03-21T17:37:26.311Z,134.02
2018-03-21T17:39:55.449Z,132.05
2018-03-21T17:42:24.553Z,131.98
2018-03-21T17:44:53.674Z,131.73
2018-03-21T17:47:22.863Z,131.02
2018-03-21T17:49:51.953Z,130.10
2018-03-21T17:52:21.078Z,130.70
2018-03-21T17:54:50.206Z,129.18
2018-03-21T17:57:19.352Z,130.25
2018-03-21T17:59:48.478Z,129.43
2018-03-21T18:02:17.626Z,130.12
2018-03-21T18:04:46.719Z,128.68
2018-03-21T18:07:15.835Z,126.78
2018-03-21T18:09:44.958Z,140.05
2018-03-21T18:12:14.229Z,132.40
2018-03-21T18:14:43.331Z,130.63
2018-03-21T18:17:13.241Z,129.87
2018-03-21T18:19:42.368Z,129.55
2018-03-21T18:22:11.489Z,129.50
2018-03-21T18:24:40.577Z,127.32
2018-03-21T18:27:09.775Z,129.55
2018-03-21T18:29:38.917Z,129.87
2018-03-21T18:32:08.051Z,129.55
2018-03-21T18:34:37.208Z,130.23
2018-03-21T18:37:06.306Z,127.82
2018-03-21T18:39:35.403Z,130.07
2018-03-21T18:42:04.563Z,129.20
2018-03-21T18:44:33.713Z,129.90
2018-03-21T18:47:02.888Z,131.80
2018-03-21T18:49:32.074Z,128.55
2018-03-21T18:52:01.206Z,128.30
2018-03-21T18:54:30.382Z,128.07
2018-03-21T18:56:59.555Z,128.45
2018-03-21T18:59:28.745Z,130.68
2018-03-21T19:01:57.862Z,130.70
2018-03-21T19:04:27.010Z,129.75
2018-03-21T19:06:56.186Z,128.00
2018-03-21T19:09:25.285Z,128.25
2018-03-21T19:11:54.397Z,128.45
2018-03-21T19:14:23.509Z,129.68
2018-03-21T19:16:52.610Z,128.12
2018-03-21T19:19:21.738Z,126.75
2018-03-21T19:21:50.856Z,126.90
2018-03-21T19:24:19.958Z,130.25
2018-03-21T19:26:49.090Z,129.52
2018-03-21T19:29:18.237Z,128.90
2018-03-21T19:31:47.400Z,128.57
2018-03-21T19:34:16.504Z,130.05
2018-03-21T19:36:45.611Z,129.77
2018-03-21T19:39:14.745Z,131.20
2018-03-21T19:41:43.857Z,128.43
2018-03-21T19:44:12.988Z,128.95
2018-03-21T19:46:42.110Z,130.18
2018-03-21T19:49:11.233Z,127.12
2018-03-21T19:51:40.407Z,128.95
2018-03-21T19:54:09.584Z,128.68
2018-03-21T19:56:38.707Z,128.25
2018-03-21T19:59:07.902Z,128.02
2018-03-21T20:01:37.066Z,128.10
2018-03-21T20:04:06.264Z,126.32
2018-03-21T20:06:35.357Z,129.32
2018-03-21T20:09:04.534Z,127.78
2018-03-21T20:11:33.670Z,129.18
2018-03-21T20:14:02.804Z,129.20
2018-03-21T20:16:31.919Z,129.60
2018-03-21T20:19:01.022Z,128.93
2018-03-21T20:21:30.119Z,131.02
2018-03-21T20:23:59.309Z,128.40
2018-03-21T20:26:28.417Z,127.75
2018-03-21T20:28:57.509Z,129.48
2018-03-21T20:31:26.617Z,127.32
2018-03-21T20:33:55.732Z,128.77
2018-03-21T20:36:24.841Z,130.82
2018-03-21T20:38:53.969Z,129.80
2018-03-21T20:41:23.093Z,128.52
2018-03-21T20:43:52.408Z,127.03
2018-03-21T20:46:25.316Z,130.18
2018-03-21T20:48:54.785Z,128.52
2018-03-21T20:51:23.922Z,129.18
2018-03-21T20:53:53.009Z,129.70
2018-03-21T20:56:22.169Z,130.12
2018-03-21T20:58:51.354Z,129.60
2018-03-21T21:01:20.510Z,131.27
2018-03-21T21:03:49.625Z,129.45
2018-03-21T21:06:18.746Z,130.87
2018-03-21T21:08:47.842Z,140.23
2018-03-21T22:53:14.227Z,41.70
2018-03-21T22:55:42.161Z,41.40
2018-03-21T22:58:09.986Z,44.67
2018-03-21T23:00:37.800Z,45.67
2018-03-21T23:03:05.759Z,46.73
2018-03-21T23:05:33.679Z,46.20
2018-03-21T23:08:01.705Z,49.28
2018-03-21T23:10:29.665Z,48.20
2018-03-21T23:12:57.638Z,49.30
2018-03-21T23:15:25.511Z,50.20
2018-03-21T23:17:53.434Z,49.55
2018-03-21T23:20:22.151Z,33.47
2018-03-21T23:22:50.276Z,34.30
2018-03-21T23:25:18.160Z,33.73
2018-03-21T23:27:46.989Z,33.60
2018-03-21T23:30:14.853Z,34.13
2018-03-21T23:32:42.716Z,33.37
2018-03-21T23:35:10.612Z,32.33
2018-03-21T23:37:38.491Z,32.80
2018-03-21T23:40:06.465Z,32.33
2018-03-21T23:42:34.390Z,32.33
2018-03-21T23:45:02.350Z,33.37
2018-03-21T23:47:30.329Z,33.10
2018-03-21T23:49:58.411Z,31.93
2018-03-21T23:52:26.369Z,31.53
2018-03-21T23:54:54.441Z,30.13
2018-03-21T23:57:22.593Z,32.03
2018-03-21T23:59:50.546Z,31.63
